<?xml version="1.0" encoding="UTF-8" standalone="no" ?>
<gpx xmlns="http://www.topografix.com/GPX/1/1" xmlns:xsi="http://www.w3.org/2001/XMLSchema-instance" xsi:schemaLocation="http://www.topografix.com/GPX/1/1 http://www.topografix.com/GPX/1/1/gpx.xsd" version="1.1" creator="VisuGPX - https://www.visugpx.com">
  <metadata>
    <name>GR10 ~ 39 étape - Auzat / Siguer</name>
  </metadata>
  <wpt lat="42.76429" lon="1.4845">
    <ele>729.9</ele>
    <name><![CDATA[Auzat]]></name>
    <desc><![CDATA[Camping La Vernière 

Alt: 731m]]></desc>
    <link href="https://www.la-verniere.fr/"></link>
    <cmt><![CDATA[+33 5 61 64 84 46]]></cmt>
    <type><![CDATA[camping]]></type>
  </wpt>
  <wpt lat="42.76404" lon="1.50923">
    <ele>1355.6</ele>
    <name><![CDATA[Pic de Risoul]]></name>
    <desc><![CDATA[Alt: 1355.6m]]></desc>
    <type><![CDATA[sommet]]></type>
  </wpt>
  <wpt lat="42.75945" lon="1.53421">
    <ele>1660.7</ele>
    <name><![CDATA[Pic de la Bède]]></name>
    <desc><![CDATA[Alt: 1660.7m]]></desc>
    <type><![CDATA[sommet]]></type>
  </wpt>
  <wpt lat="42.76428" lon="1.53251">
    <ele>1568.3</ele>
    <name><![CDATA[pic de Ganchette]]></name>
    <desc><![CDATA[Alt: 1568.3m]]></desc>
    <type><![CDATA[sommet]]></type>
  </wpt>
  <wpt lat="42.7635" lon="1.56616">
    <ele>753.1</ele>
    <name><![CDATA[Siguer]]></name>
    <desc><![CDATA[Nuitée au Point d'accueil des randonneur

Alt: 753.1m]]></desc>
    <type><![CDATA[hotel]]></type>
  </wpt>
  <trk>
    <name><![CDATA[39 étape GR 10]]></name>
    <extensions>
      <line xmlns="http://www.topografix.com/GPX/gpx_style/0/2">
        <color>0000FF</color>
        <opacity>1</opacity>
        <width>4</width>
      </line>
    </extensions>
    <trkseg>
      <trkpt lat="42.76405" lon="1.48363">
        <ele>819</ele>
        <time>2024-08-11T08:19:03+02:00</time>
        <extensions>
          <visugpx:TrkExtension xmlns:visugpx="https://www.visugpx.com/editgpx/">
            <visugpx:node>1</visugpx:node>
            </visugpx:TrkExtension>
        </extensions>
      </trkpt>
      <trkpt lat="42.7637" lon="1.48327">
        <ele>791</ele>
        <time>2024-08-11T08:19:56+02:00</time>
      </trkpt>
      <trkpt lat="42.76336" lon="1.48291">
        <ele>806</ele>
        <time>2024-08-11T08:20:37+02:00</time>
      </trkpt>
      <trkpt lat="42.76296" lon="1.4827">
        <ele>804</ele>
        <time>2024-08-11T08:21:15+02:00</time>
      </trkpt>
      <trkpt lat="42.76256" lon="1.48249">
        <ele>806</ele>
        <time>2024-08-11T08:21:47+02:00</time>
      </trkpt>
      <trkpt lat="42.7621" lon="1.48236">
        <ele>808</ele>
        <time>2024-08-11T08:22:22+02:00</time>
      </trkpt>
      <trkpt lat="42.76173" lon="1.48202">
        <ele>810</ele>
        <time>2024-08-11T08:23:04+02:00</time>
      </trkpt>
      <trkpt lat="42.76131" lon="1.48181">
        <ele>814</ele>
        <time>2024-08-11T08:23:57+02:00</time>
      </trkpt>
      <trkpt lat="42.76089" lon="1.48151">
        <ele>816</ele>
        <time>2024-08-11T08:24:33+02:00</time>
      </trkpt>
      <trkpt lat="42.76063" lon="1.48106">
        <ele>819</ele>
        <time>2024-08-11T08:25:30+02:00</time>
      </trkpt>
      <trkpt lat="42.76036" lon="1.48063">
        <ele>818</ele>
        <time>2024-08-11T08:26:08+02:00</time>
      </trkpt>
      <trkpt lat="42.76023" lon="1.4801">
        <ele>818</ele>
        <time>2024-08-11T08:27:07+02:00</time>
      </trkpt>
      <trkpt lat="42.75993" lon="1.47954">
        <ele>817</ele>
        <time>2024-08-11T08:28:09+02:00</time>
      </trkpt>
      <trkpt lat="42.75965" lon="1.47906">
        <ele>814</ele>
        <time>2024-08-11T08:28:45+02:00</time>
      </trkpt>
      <trkpt lat="42.75938" lon="1.47858">
        <ele>815</ele>
        <time>2024-08-11T08:29:25+02:00</time>
      </trkpt>
      <trkpt lat="42.75899" lon="1.4782">
        <ele>811</ele>
        <time>2024-08-11T08:30:09+02:00</time>
      </trkpt>
      <trkpt lat="42.75869" lon="1.47782">
        <ele>807</ele>
        <time>2024-08-11T08:31:37+02:00</time>
      </trkpt>
      <trkpt lat="42.75884" lon="1.47838">
        <ele>806</ele>
        <time>2024-08-11T08:33:14+02:00</time>
      </trkpt>
      <trkpt lat="42.75893" lon="1.47898">
        <ele>806</ele>
        <time>2024-08-11T08:34:02+02:00</time>
      </trkpt>
      <trkpt lat="42.75885" lon="1.47967">
        <ele>808</ele>
        <time>2024-08-11T08:34:54+02:00</time>
      </trkpt>
      <trkpt lat="42.75904" lon="1.48023">
        <ele>812</ele>
        <time>2024-08-11T08:35:35+02:00</time>
      </trkpt>
      <trkpt lat="42.75909" lon="1.48082">
        <ele>819</ele>
        <time>2024-08-11T08:36:14+02:00</time>
      </trkpt>
      <trkpt lat="42.75926" lon="1.48139">
        <ele>827</ele>
        <time>2024-08-11T08:37:12+02:00</time>
      </trkpt>
      <trkpt lat="42.75931" lon="1.48194">
        <ele>834</ele>
        <time>2024-08-11T08:38:08+02:00</time>
      </trkpt>
      <trkpt lat="42.75961" lon="1.48235">
        <ele>844</ele>
        <time>2024-08-11T08:39:16+02:00</time>
      </trkpt>
      <trkpt lat="42.76007" lon="1.48236">
        <ele>858</ele>
        <time>2024-08-11T08:39:53+02:00</time>
      </trkpt>
      <trkpt lat="42.76002" lon="1.48295">
        <ele>870</ele>
        <time>2024-08-11T08:40:32+02:00</time>
      </trkpt>
      <trkpt lat="42.75996" lon="1.48359">
        <ele>882</ele>
        <time>2024-08-11T08:42:43+02:00</time>
      </trkpt>
      <trkpt lat="42.7602" lon="1.4841">
        <ele>892</ele>
        <time>2024-08-11T08:43:54+02:00</time>
      </trkpt>
      <trkpt lat="42.76047" lon="1.48453">
        <ele>901</ele>
        <time>2024-08-11T08:44:42+02:00</time>
      </trkpt>
      <trkpt lat="42.76079" lon="1.48499">
        <ele>913</ele>
        <time>2024-08-11T08:45:54+02:00</time>
      </trkpt>
      <trkpt lat="42.76112" lon="1.48546">
        <ele>925</ele>
        <time>2024-08-11T08:46:35+02:00</time>
      </trkpt>
      <trkpt lat="42.76128" lon="1.48598">
        <ele>934</ele>
        <time>2024-08-11T08:47:23+02:00</time>
      </trkpt>
      <trkpt lat="42.76154" lon="1.48679">
        <ele>942</ele>
        <time>2024-08-11T08:50:10+02:00</time>
      </trkpt>
      <trkpt lat="42.76169" lon="1.48768">
        <ele>950</ele>
        <time>2024-08-11T08:50:31+02:00</time>
      </trkpt>
      <trkpt lat="42.76184" lon="1.48822">
        <ele>954</ele>
        <time>2024-08-11T08:50:49+02:00</time>
      </trkpt>
      <trkpt lat="42.76178" lon="1.48879">
        <ele>962</ele>
        <time>2024-08-11T08:51:19+02:00</time>
      </trkpt>
      <trkpt lat="42.76171" lon="1.48942">
        <ele>970</ele>
        <time>2024-08-11T08:52:59+02:00</time>
      </trkpt>
      <trkpt lat="42.76137" lon="1.48995">
        <ele>972</ele>
        <time>2024-08-11T08:53:59+02:00</time>
      </trkpt>
      <trkpt lat="42.76098" lon="1.49024">
        <ele>978</ele>
        <time>2024-08-11T08:54:17+02:00</time>
      </trkpt>
      <trkpt lat="42.76048" lon="1.49042">
        <ele>984</ele>
        <time>2024-08-11T08:54:47+02:00</time>
      </trkpt>
      <trkpt lat="42.76022" lon="1.49086">
        <ele>989</ele>
        <time>2024-08-11T08:55:35+02:00</time>
      </trkpt>
      <trkpt lat="42.76008" lon="1.49142">
        <ele>998</ele>
        <time>2024-08-11T08:56:35+02:00</time>
      </trkpt>
      <trkpt lat="42.76" lon="1.49203">
        <ele>1001</ele>
        <time>2024-08-11T08:57:59+02:00</time>
      </trkpt>
      <trkpt lat="42.75998" lon="1.49262">
        <ele>1005</ele>
        <time>2024-08-11T08:59:05+02:00</time>
      </trkpt>
      <trkpt lat="42.75982" lon="1.49316">
        <ele>1012</ele>
        <time>2024-08-11T08:59:47+02:00</time>
      </trkpt>
      <trkpt lat="42.75964" lon="1.49376">
        <ele>1013</ele>
        <time>2024-08-11T09:00:47+02:00</time>
      </trkpt>
      <trkpt lat="42.7594" lon="1.49424">
        <ele>1018</ele>
        <time>2024-08-11T09:01:59+02:00</time>
      </trkpt>
      <trkpt lat="42.75941" lon="1.49485">
        <ele>1024</ele>
        <time>2024-08-11T09:02:53+02:00</time>
      </trkpt>
      <trkpt lat="42.75913" lon="1.49536">
        <ele>1029</ele>
        <time>2024-08-11T09:04:06+02:00</time>
      </trkpt>
      <trkpt lat="42.75878" lon="1.49573">
        <ele>1034</ele>
        <time>2024-08-11T09:04:42+02:00</time>
      </trkpt>
      <trkpt lat="42.75858" lon="1.49625">
        <ele>1044</ele>
        <time>2024-08-11T09:05:24+02:00</time>
      </trkpt>
      <trkpt lat="42.75816" lon="1.49667">
        <ele>1053</ele>
        <time>2024-08-11T09:06:18+02:00</time>
      </trkpt>
      <trkpt lat="42.75796" lon="1.4972">
        <ele>1063</ele>
        <time>2024-08-11T09:07:17+02:00</time>
      </trkpt>
      <trkpt lat="42.75795" lon="1.49779">
        <ele>1075</ele>
        <time>2024-08-11T09:08:05+02:00</time>
      </trkpt>
      <trkpt lat="42.75796" lon="1.49841">
        <ele>1081</ele>
        <time>2024-08-11T09:09:00+02:00</time>
      </trkpt>
      <trkpt lat="42.75807" lon="1.49894">
        <ele>1092</ele>
        <time>2024-08-11T09:09:47+02:00</time>
      </trkpt>
      <trkpt lat="42.75782" lon="1.49945">
        <ele>1102</ele>
        <time>2024-08-11T09:11:24+02:00</time>
      </trkpt>
      <trkpt lat="42.75745" lon="1.49974">
        <ele>1107</ele>
        <time>2024-08-11T09:11:59+02:00</time>
      </trkpt>
      <trkpt lat="42.75717" lon="1.50013">
        <ele>1114</ele>
        <time>2024-08-11T09:12:41+02:00</time>
      </trkpt>
      <trkpt lat="42.75679" lon="1.50039">
        <ele>1121</ele>
        <time>2024-08-11T09:14:05+02:00</time>
      </trkpt>
      <trkpt lat="42.75635" lon="1.50043">
        <ele>1124</ele>
        <time>2024-08-11T09:15:00+02:00</time>
      </trkpt>
      <trkpt lat="42.75592" lon="1.50032">
        <ele>1126</ele>
        <time>2024-08-11T09:16:48+02:00</time>
      </trkpt>
      <trkpt lat="42.75544" lon="1.50042">
        <ele>1130</ele>
        <time>2024-08-11T09:18:36+02:00</time>
      </trkpt>
      <trkpt lat="42.75514" lon="1.50091">
        <ele>1132</ele>
        <time>2024-08-11T09:18:54+02:00</time>
      </trkpt>
      <trkpt lat="42.75475" lon="1.50177">
        <ele>1132</ele>
        <time>2024-08-11T09:22:11+02:00</time>
      </trkpt>
      <trkpt lat="42.75523" lon="1.50265">
        <ele>1134</ele>
        <time>2024-08-11T09:24:40+02:00</time>
      </trkpt>
      <trkpt lat="42.75557" lon="1.50297">
        <ele>1137</ele>
        <time>2024-08-11T09:25:29+02:00</time>
      </trkpt>
      <trkpt lat="42.75548" lon="1.50367">
        <ele>1141</ele>
        <time>2024-08-11T09:27:38+02:00</time>
      </trkpt>
      <trkpt lat="42.75514" lon="1.5033">
        <ele>1146</ele>
        <time>2024-08-11T09:30:14+02:00</time>
      </trkpt>
      <trkpt lat="42.75473" lon="1.5034">
        <ele>1149</ele>
        <time>2024-08-11T09:30:39+02:00</time>
      </trkpt>
      <trkpt lat="42.75428" lon="1.50342">
        <ele>1151</ele>
        <time>2024-08-11T09:31:08+02:00</time>
      </trkpt>
      <trkpt lat="42.75402" lon="1.50385">
        <ele>1159</ele>
        <time>2024-08-11T09:31:47+02:00</time>
      </trkpt>
      <trkpt lat="42.75441" lon="1.5041">
        <ele>1166</ele>
        <time>2024-08-11T09:37:04+02:00</time>
      </trkpt>
      <trkpt lat="42.75471" lon="1.5045">
        <ele>1170</ele>
        <time>2024-08-11T09:37:22+02:00</time>
      </trkpt>
      <trkpt lat="42.75497" lon="1.50495">
        <ele>1177</ele>
        <time>2024-08-11T09:38:52+02:00</time>
      </trkpt>
      <trkpt lat="42.75529" lon="1.50539">
        <ele>1186</ele>
        <time>2024-08-11T09:39:16+02:00</time>
      </trkpt>
      <trkpt lat="42.75569" lon="1.50559">
        <ele>1193</ele>
        <time>2024-08-11T09:40:21+02:00</time>
      </trkpt>
      <trkpt lat="42.75609" lon="1.50559">
        <ele>1202</ele>
        <time>2024-08-11T09:40:57+02:00</time>
      </trkpt>
      <trkpt lat="42.75655" lon="1.50555">
        <ele>1209</ele>
        <time>2024-08-11T09:41:58+02:00</time>
      </trkpt>
      <trkpt lat="42.75695" lon="1.50547">
        <ele>1220</ele>
        <time>2024-08-11T09:42:39+02:00</time>
      </trkpt>
      <trkpt lat="42.75696" lon="1.50606">
        <ele>1234</ele>
        <time>2024-08-11T09:44:28+02:00</time>
      </trkpt>
      <trkpt lat="42.75746" lon="1.50599">
        <ele>1241</ele>
        <time>2024-08-11T09:45:45+02:00</time>
      </trkpt>
      <trkpt lat="42.7579" lon="1.50597">
        <ele>1249</ele>
        <time>2024-08-11T09:46:51+02:00</time>
      </trkpt>
      <trkpt lat="42.75831" lon="1.50594">
        <ele>1257</ele>
        <time>2024-08-11T09:48:02+02:00</time>
      </trkpt>
      <trkpt lat="42.75883" lon="1.50638">
        <ele>1262</ele>
        <time>2024-08-11T09:49:39+02:00</time>
      </trkpt>
      <trkpt lat="42.7592" lon="1.50684">
        <ele>1268</ele>
        <time>2024-08-11T09:50:09+02:00</time>
      </trkpt>
      <trkpt lat="42.75948" lon="1.50727">
        <ele>1275</ele>
        <time>2024-08-11T09:50:57+02:00</time>
      </trkpt>
      <trkpt lat="42.75979" lon="1.50764">
        <ele>1284</ele>
        <time>2024-08-11T09:51:49+02:00</time>
      </trkpt>
      <trkpt lat="42.76023" lon="1.50762">
        <ele>1295</ele>
        <time>2024-08-11T09:52:38+02:00</time>
      </trkpt>
      <trkpt lat="42.76067" lon="1.50771">
        <ele>1306</ele>
        <time>2024-08-11T09:53:31+02:00</time>
      </trkpt>
      <trkpt lat="42.76106" lon="1.50797">
        <ele>1320</ele>
        <time>2024-08-11T09:54:52+02:00</time>
      </trkpt>
      <trkpt lat="42.76147" lon="1.50821">
        <ele>1334</ele>
        <time>2024-08-11T09:56:02+02:00</time>
      </trkpt>
      <trkpt lat="42.76186" lon="1.5084">
        <ele>1348</ele>
        <time>2024-08-11T09:58:03+02:00</time>
      </trkpt>
      <trkpt lat="42.76235" lon="1.5084">
        <ele>1364</ele>
        <time>2024-08-11T09:58:19+02:00</time>
      </trkpt>
      <trkpt lat="42.76278" lon="1.50846">
        <ele>1371</ele>
        <time>2024-08-11T09:59:30+02:00</time>
      </trkpt>
      <trkpt lat="42.76275" lon="1.50906">
        <ele>1382</ele>
        <time>2024-08-11T10:01:12+02:00</time>
      </trkpt>
      <trkpt lat="42.76307" lon="1.5094">
        <ele>1392</ele>
        <time>2024-08-11T10:02:24+02:00</time>
      </trkpt>
      <trkpt lat="42.76326" lon="1.50989">
        <ele>1395</ele>
        <time>2024-08-11T10:21:50+02:00</time>
      </trkpt>
      <trkpt lat="42.76285" lon="1.50983">
        <ele>1398</ele>
        <time>2024-08-11T10:24:35+02:00</time>
      </trkpt>
      <trkpt lat="42.76242" lon="1.51021">
        <ele>1402</ele>
        <time>2024-08-11T10:25:19+02:00</time>
      </trkpt>
      <trkpt lat="42.762" lon="1.51041">
        <ele>1404</ele>
        <time>2024-08-11T10:26:07+02:00</time>
      </trkpt>
      <trkpt lat="42.76157" lon="1.51047">
        <ele>1402</ele>
        <time>2024-08-11T10:27:01+02:00</time>
      </trkpt>
      <trkpt lat="42.76111" lon="1.51027">
        <ele>1405</ele>
        <time>2024-08-11T10:28:02+02:00</time>
      </trkpt>
      <trkpt lat="42.76078" lon="1.51068">
        <ele>1406</ele>
        <time>2024-08-11T10:28:50+02:00</time>
      </trkpt>
      <trkpt lat="42.76037" lon="1.51048">
        <ele>1407</ele>
        <time>2024-08-11T10:29:32+02:00</time>
      </trkpt>
      <trkpt lat="42.75996" lon="1.51036">
        <ele>1411</ele>
        <time>2024-08-11T10:30:20+02:00</time>
      </trkpt>
      <trkpt lat="42.75953" lon="1.51033">
        <ele>1413</ele>
        <time>2024-08-11T10:31:14+02:00</time>
      </trkpt>
      <trkpt lat="42.75925" lon="1.51076">
        <ele>1417</ele>
        <time>2024-08-11T10:32:01+02:00</time>
      </trkpt>
      <trkpt lat="42.75907" lon="1.51131">
        <ele>1420</ele>
        <time>2024-08-11T10:33:07+02:00</time>
      </trkpt>
      <trkpt lat="42.75897" lon="1.51186">
        <ele>1421</ele>
        <time>2024-08-11T10:33:49+02:00</time>
      </trkpt>
      <trkpt lat="42.7588" lon="1.51236">
        <ele>1426</ele>
        <time>2024-08-11T10:34:30+02:00</time>
      </trkpt>
      <trkpt lat="42.75851" lon="1.5128">
        <ele>1427</ele>
        <time>2024-08-11T10:35:37+02:00</time>
      </trkpt>
      <trkpt lat="42.75817" lon="1.51316">
        <ele>1429</ele>
        <time>2024-08-11T10:36:18+02:00</time>
      </trkpt>
      <trkpt lat="42.75774" lon="1.51318">
        <ele>1432</ele>
        <time>2024-08-11T10:37:00+02:00</time>
      </trkpt>
      <trkpt lat="42.75732" lon="1.51338">
        <ele>1435</ele>
        <time>2024-08-11T10:37:43+02:00</time>
      </trkpt>
      <trkpt lat="42.75689" lon="1.51358">
        <ele>1441</ele>
        <time>2024-08-11T10:38:31+02:00</time>
      </trkpt>
      <trkpt lat="42.75646" lon="1.51376">
        <ele>1443</ele>
        <time>2024-08-11T10:39:08+02:00</time>
      </trkpt>
      <trkpt lat="42.75604" lon="1.51384">
        <ele>1446</ele>
        <time>2024-08-11T10:39:50+02:00</time>
      </trkpt>
      <trkpt lat="42.75565" lon="1.51401">
        <ele>1451</ele>
        <time>2024-08-11T10:40:32+02:00</time>
      </trkpt>
      <trkpt lat="42.75532" lon="1.51465">
        <ele>1454</ele>
        <time>2024-08-11T10:41:33+02:00</time>
      </trkpt>
      <trkpt lat="42.75481" lon="1.51493">
        <ele>1457</ele>
        <time>2024-08-11T10:42:20+02:00</time>
      </trkpt>
      <trkpt lat="42.75425" lon="1.51508">
        <ele>1460</ele>
        <time>2024-08-11T10:42:43+02:00</time>
      </trkpt>
      <trkpt lat="42.75383" lon="1.51507">
        <ele>1467</ele>
        <time>2024-08-11T10:43:19+02:00</time>
      </trkpt>
      <trkpt lat="42.75341" lon="1.51505">
        <ele>1472</ele>
        <time>2024-08-11T10:44:35+02:00</time>
      </trkpt>
      <trkpt lat="42.75309" lon="1.51459">
        <ele>1476</ele>
        <time>2024-08-11T10:45:17+02:00</time>
      </trkpt>
      <trkpt lat="42.75272" lon="1.51407">
        <ele>1485</ele>
        <time>2024-08-11T10:46:05+02:00</time>
      </trkpt>
      <trkpt lat="42.75234" lon="1.51371">
        <ele>1494</ele>
        <time>2024-08-11T10:46:53+02:00</time>
      </trkpt>
      <trkpt lat="42.75273" lon="1.51425">
        <ele>1502</ele>
        <time>2024-08-11T10:51:01+02:00</time>
      </trkpt>
      <trkpt lat="42.75277" lon="1.51491">
        <ele>1511</ele>
        <time>2024-08-11T10:51:25+02:00</time>
      </trkpt>
      <trkpt lat="42.75281" lon="1.51553">
        <ele>1515</ele>
        <time>2024-08-11T10:52:01+02:00</time>
      </trkpt>
      <trkpt lat="42.7531" lon="1.51599">
        <ele>1521</ele>
        <time>2024-08-11T10:53:00+02:00</time>
      </trkpt>
      <trkpt lat="42.75337" lon="1.51644">
        <ele>1527</ele>
        <time>2024-08-11T10:54:06+02:00</time>
      </trkpt>
      <trkpt lat="42.75364" lon="1.51688">
        <ele>1533</ele>
        <time>2024-08-11T10:55:07+02:00</time>
      </trkpt>
      <trkpt lat="42.75364" lon="1.51755">
        <ele>1539</ele>
        <time>2024-08-11T10:56:11+02:00</time>
      </trkpt>
      <trkpt lat="42.75323" lon="1.51778">
        <ele>1543</ele>
        <time>2024-08-11T10:57:01+02:00</time>
      </trkpt>
      <trkpt lat="42.75281" lon="1.51805">
        <ele>1546</ele>
        <time>2024-08-11T10:57:48+02:00</time>
      </trkpt>
      <trkpt lat="42.75251" lon="1.51844">
        <ele>1547</ele>
        <time>2024-08-11T10:58:23+02:00</time>
      </trkpt>
      <trkpt lat="42.75213" lon="1.5187">
        <ele>1549</ele>
        <time>2024-08-11T10:59:00+02:00</time>
      </trkpt>
      <trkpt lat="42.75177" lon="1.51896">
        <ele>1550</ele>
        <time>2024-08-11T10:59:38+02:00</time>
      </trkpt>
      <trkpt lat="42.75151" lon="1.5195">
        <ele>1550</ele>
        <time>2024-08-11T11:00:25+02:00</time>
      </trkpt>
      <trkpt lat="42.75124" lon="1.51997">
        <ele>1549</ele>
        <time>2024-08-11T11:01:01+02:00</time>
      </trkpt>
      <trkpt lat="42.75091" lon="1.52042">
        <ele>1551</ele>
        <time>2024-08-11T11:01:38+02:00</time>
      </trkpt>
      <trkpt lat="42.75055" lon="1.52071">
        <ele>1552</ele>
        <time>2024-08-11T11:02:19+02:00</time>
      </trkpt>
      <trkpt lat="42.75032" lon="1.52122">
        <ele>1551</ele>
        <time>2024-08-11T11:03:07+02:00</time>
      </trkpt>
      <trkpt lat="42.74996" lon="1.52154">
        <ele>1553</ele>
        <time>2024-08-11T11:03:57+02:00</time>
      </trkpt>
      <trkpt lat="42.74953" lon="1.52147">
        <ele>1554</ele>
        <time>2024-08-11T11:04:39+02:00</time>
      </trkpt>
      <trkpt lat="42.7491" lon="1.52167">
        <ele>1553</ele>
        <time>2024-08-11T11:05:27+02:00</time>
      </trkpt>
      <trkpt lat="42.74869" lon="1.52184">
        <ele>1553</ele>
        <time>2024-08-11T11:06:03+02:00</time>
      </trkpt>
      <trkpt lat="42.7483" lon="1.52219">
        <ele>1550</ele>
        <time>2024-08-11T11:06:45+02:00</time>
      </trkpt>
      <trkpt lat="42.74799" lon="1.52257">
        <ele>1547</ele>
        <time>2024-08-11T11:07:21+02:00</time>
      </trkpt>
      <trkpt lat="42.74766" lon="1.52303">
        <ele>1544</ele>
        <time>2024-08-11T11:08:03+02:00</time>
      </trkpt>
      <trkpt lat="42.74731" lon="1.52335">
        <ele>1540</ele>
        <time>2024-08-11T11:08:44+02:00</time>
      </trkpt>
      <trkpt lat="42.7482" lon="1.52806">
        <ele>1536</ele>
        <time>2024-08-11T11:18:09+02:00</time>
      </trkpt>
      <trkpt lat="42.74863" lon="1.52832">
        <ele>1534</ele>
        <time>2024-08-11T11:21:01+02:00</time>
      </trkpt>
      <trkpt lat="42.74923" lon="1.52856">
        <ele>1532</ele>
        <time>2024-08-11T11:21:28+02:00</time>
      </trkpt>
      <trkpt lat="42.7497" lon="1.52866">
        <ele>1535</ele>
        <time>2024-08-11T11:21:39+02:00</time>
      </trkpt>
      <trkpt lat="42.75015" lon="1.5287">
        <ele>1536</ele>
        <time>2024-08-11T11:21:51+02:00</time>
      </trkpt>
      <trkpt lat="42.75059" lon="1.52873">
        <ele>1537</ele>
        <time>2024-08-11T11:22:11+02:00</time>
      </trkpt>
      <trkpt lat="42.75126" lon="1.52901">
        <ele>1541</ele>
        <time>2024-08-11T11:22:40+02:00</time>
      </trkpt>
      <trkpt lat="42.7516" lon="1.52943">
        <ele>1542</ele>
        <time>2024-08-11T11:23:04+02:00</time>
      </trkpt>
      <trkpt lat="42.752" lon="1.52996">
        <ele>1542</ele>
        <time>2024-08-11T11:23:40+02:00</time>
      </trkpt>
      <trkpt lat="42.75229" lon="1.53039">
        <ele>1542</ele>
        <time>2024-08-11T11:24:10+02:00</time>
      </trkpt>
      <trkpt lat="42.75249" lon="1.53089">
        <ele>1543</ele>
        <time>2024-08-11T11:24:52+02:00</time>
      </trkpt>
      <trkpt lat="42.75286" lon="1.53124">
        <ele>1545</ele>
        <time>2024-08-11T11:25:46+02:00</time>
      </trkpt>
      <trkpt lat="42.75324" lon="1.53157">
        <ele>1546</ele>
        <time>2024-08-11T11:26:27+02:00</time>
      </trkpt>
      <trkpt lat="42.7534" lon="1.53222">
        <ele>1544</ele>
        <time>2024-08-11T11:27:21+02:00</time>
      </trkpt>
      <trkpt lat="42.75382" lon="1.53221">
        <ele>1547</ele>
        <time>2024-08-11T11:28:00+02:00</time>
      </trkpt>
      <trkpt lat="42.75373" lon="1.53159">
        <ele>1549</ele>
        <time>2024-08-11T11:28:34+02:00</time>
      </trkpt>
      <trkpt lat="42.75369" lon="1.53091">
        <ele>1548</ele>
        <time>2024-08-11T11:31:27+02:00</time>
      </trkpt>
      <trkpt lat="42.7537" lon="1.53021">
        <ele>1550</ele>
        <time>2024-08-11T11:31:45+02:00</time>
      </trkpt>
      <trkpt lat="42.75403" lon="1.52984">
        <ele>1554</ele>
        <time>2024-08-11T11:32:03+02:00</time>
      </trkpt>
      <trkpt lat="42.75442" lon="1.52999">
        <ele>1559</ele>
        <time>2024-08-11T11:32:15+02:00</time>
      </trkpt>
      <trkpt lat="42.75487" lon="1.53006">
        <ele>1564</ele>
        <time>2024-08-11T11:32:32+02:00</time>
      </trkpt>
      <trkpt lat="42.75534" lon="1.52998">
        <ele>1567</ele>
        <time>2024-08-11T11:33:08+02:00</time>
      </trkpt>
      <trkpt lat="42.75587" lon="1.52999">
        <ele>1571</ele>
        <time>2024-08-11T11:33:56+02:00</time>
      </trkpt>
      <trkpt lat="42.75631" lon="1.53017">
        <ele>1579</ele>
        <time>2024-08-11T11:34:45+02:00</time>
      </trkpt>
      <trkpt lat="42.75675" lon="1.53035">
        <ele>1584</ele>
        <time>2024-08-11T11:37:45+02:00</time>
      </trkpt>
      <trkpt lat="42.75731" lon="1.53059">
        <ele>1587</ele>
        <time>2024-08-11T11:38:48+02:00</time>
      </trkpt>
      <trkpt lat="42.75775" lon="1.53067">
        <ele>1590</ele>
        <time>2024-08-11T11:39:05+02:00</time>
      </trkpt>
      <trkpt lat="42.75824" lon="1.53035">
        <ele>1592</ele>
        <time>2024-08-11T11:39:51+02:00</time>
      </trkpt>
      <trkpt lat="42.75871" lon="1.53005">
        <ele>1597</ele>
        <time>2024-08-11T11:40:50+02:00</time>
      </trkpt>
      <trkpt lat="42.75916" lon="1.53026">
        <ele>1603</ele>
        <time>2024-08-11T11:41:18+02:00</time>
      </trkpt>
      <trkpt lat="42.7595" lon="1.53065">
        <ele>1606</ele>
        <time>2024-08-11T11:41:55+02:00</time>
      </trkpt>
      <trkpt lat="42.75986" lon="1.53103">
        <ele>1609</ele>
        <time>2024-08-11T11:42:37+02:00</time>
      </trkpt>
      <trkpt lat="42.76022" lon="1.5314">
        <ele>1608</ele>
        <time>2024-08-11T11:43:13+02:00</time>
      </trkpt>
      <trkpt lat="42.76057" lon="1.5318">
        <ele>1608</ele>
        <time>2024-08-11T11:43:49+02:00</time>
      </trkpt>
      <trkpt lat="42.76093" lon="1.53225">
        <ele>1607</ele>
        <time>2024-08-11T11:44:31+02:00</time>
      </trkpt>
      <trkpt lat="42.76127" lon="1.53267">
        <ele>1604</ele>
        <time>2024-08-11T11:45:13+02:00</time>
      </trkpt>
      <trkpt lat="42.76171" lon="1.53295">
        <ele>1601</ele>
        <time>2024-08-11T11:45:55+02:00</time>
      </trkpt>
      <trkpt lat="42.76205" lon="1.53324">
        <ele>1591</ele>
        <time>2024-08-11T11:46:37+02:00</time>
      </trkpt>
      <trkpt lat="42.76244" lon="1.53292">
        <ele>1585</ele>
        <time>2024-08-11T11:47:31+02:00</time>
      </trkpt>
      <trkpt lat="42.76289" lon="1.53294">
        <ele>1577</ele>
        <time>2024-08-11T11:49:30+02:00</time>
      </trkpt>
      <trkpt lat="42.76347" lon="1.53403">
        <ele>1565</ele>
        <time>2024-08-11T11:50:25+02:00</time>
      </trkpt>
      <trkpt lat="42.7638" lon="1.53465">
        <ele>1556</ele>
        <time>2024-08-11T11:50:46+02:00</time>
      </trkpt>
      <trkpt lat="42.76416" lon="1.53499">
        <ele>1543</ele>
        <time>2024-08-11T11:51:37+02:00</time>
      </trkpt>
      <trkpt lat="42.76452" lon="1.5354">
        <ele>1529</ele>
        <time>2024-08-11T11:52:31+02:00</time>
      </trkpt>
      <trkpt lat="42.76482" lon="1.53591">
        <ele>1516</ele>
        <time>2024-08-11T11:53:23+02:00</time>
      </trkpt>
      <trkpt lat="42.76511" lon="1.53639">
        <ele>1504</ele>
        <time>2024-08-11T11:54:21+02:00</time>
      </trkpt>
      <trkpt lat="42.76537" lon="1.53683">
        <ele>1491</ele>
        <time>2024-08-11T11:55:04+02:00</time>
      </trkpt>
      <trkpt lat="42.76571" lon="1.53724">
        <ele>1479</ele>
        <time>2024-08-11T11:55:56+02:00</time>
      </trkpt>
      <trkpt lat="42.76597" lon="1.53771">
        <ele>1473</ele>
        <time>2024-08-11T11:56:47+02:00</time>
      </trkpt>
      <trkpt lat="42.76611" lon="1.53828">
        <ele>1466</ele>
        <time>2024-08-11T11:57:41+02:00</time>
      </trkpt>
      <trkpt lat="42.76654" lon="1.53851">
        <ele>1460</ele>
        <time>2024-08-11T11:59:27+02:00</time>
      </trkpt>
      <trkpt lat="42.76684" lon="1.5389">
        <ele>1456</ele>
        <time>2024-08-11T12:00:27+02:00</time>
      </trkpt>
      <trkpt lat="42.76718" lon="1.5392">
        <ele>1451</ele>
        <time>2024-08-11T12:01:03+02:00</time>
      </trkpt>
      <trkpt lat="42.76758" lon="1.53949">
        <ele>1448</ele>
        <time>2024-08-11T12:01:40+02:00</time>
      </trkpt>
      <trkpt lat="42.76798" lon="1.53961">
        <ele>1440</ele>
        <time>2024-08-11T12:02:22+02:00</time>
      </trkpt>
      <trkpt lat="42.76837" lon="1.53989">
        <ele>1434</ele>
        <time>2024-08-11T12:03:04+02:00</time>
      </trkpt>
      <trkpt lat="42.76875" lon="1.54012">
        <ele>1424</ele>
        <time>2024-08-11T12:03:45+02:00</time>
      </trkpt>
      <trkpt lat="42.76918" lon="1.54004">
        <ele>1411</ele>
        <time>2024-08-11T12:04:28+02:00</time>
      </trkpt>
      <trkpt lat="42.76957" lon="1.53985">
        <ele>1404</ele>
        <time>2024-08-11T12:05:10+02:00</time>
      </trkpt>
      <trkpt lat="42.77001" lon="1.53994">
        <ele>1396</ele>
        <time>2024-08-11T12:05:58+02:00</time>
      </trkpt>
      <trkpt lat="42.77039" lon="1.54018">
        <ele>1386</ele>
        <time>2024-08-11T12:06:52+02:00</time>
      </trkpt>
      <trkpt lat="42.77059" lon="1.53969">
        <ele>1378</ele>
        <time>2024-08-11T12:08:10+02:00</time>
      </trkpt>
      <trkpt lat="42.77108" lon="1.53976">
        <ele>1368</ele>
        <time>2024-08-11T12:08:59+02:00</time>
      </trkpt>
      <trkpt lat="42.77152" lon="1.53973">
        <ele>1357</ele>
        <time>2024-08-11T12:09:16+02:00</time>
      </trkpt>
      <trkpt lat="42.77194" lon="1.53964">
        <ele>1350</ele>
        <time>2024-08-11T12:09:53+02:00</time>
      </trkpt>
      <trkpt lat="42.77202" lon="1.54021">
        <ele>1341</ele>
        <time>2024-08-11T12:11:14+02:00</time>
      </trkpt>
      <trkpt lat="42.77232" lon="1.5406">
        <ele>1331</ele>
        <time>2024-08-11T12:12:03+02:00</time>
      </trkpt>
      <trkpt lat="42.7726" lon="1.54102">
        <ele>1319</ele>
        <time>2024-08-11T12:12:31+02:00</time>
      </trkpt>
      <trkpt lat="42.77292" lon="1.54137">
        <ele>1306</ele>
        <time>2024-08-11T12:12:51+02:00</time>
      </trkpt>
      <trkpt lat="42.7724" lon="1.54163">
        <ele>1298</ele>
        <time>2024-08-11T12:53:58+02:00</time>
      </trkpt>
      <trkpt lat="42.77196" lon="1.54164">
        <ele>1287</ele>
        <time>2024-08-11T12:54:34+02:00</time>
      </trkpt>
      <trkpt lat="42.77155" lon="1.5418">
        <ele>1276</ele>
        <time>2024-08-11T12:55:16+02:00</time>
      </trkpt>
      <trkpt lat="42.77113" lon="1.54181">
        <ele>1266</ele>
        <time>2024-08-11T12:56:04+02:00</time>
      </trkpt>
      <trkpt lat="42.77072" lon="1.54193">
        <ele>1252</ele>
        <time>2024-08-11T12:57:04+02:00</time>
      </trkpt>
      <trkpt lat="42.77033" lon="1.54219">
        <ele>1244</ele>
        <time>2024-08-11T12:57:52+02:00</time>
      </trkpt>
      <trkpt lat="42.77006" lon="1.54266">
        <ele>1235</ele>
        <time>2024-08-11T12:58:34+02:00</time>
      </trkpt>
      <trkpt lat="42.77032" lon="1.54313">
        <ele>1223</ele>
        <time>2024-08-11T13:00:10+02:00</time>
      </trkpt>
      <trkpt lat="42.77075" lon="1.54342">
        <ele>1214</ele>
        <time>2024-08-11T13:00:58+02:00</time>
      </trkpt>
      <trkpt lat="42.77089" lon="1.54393">
        <ele>1205</ele>
        <time>2024-08-11T13:01:40+02:00</time>
      </trkpt>
      <trkpt lat="42.77095" lon="1.54453">
        <ele>1198</ele>
        <time>2024-08-11T13:02:28+02:00</time>
      </trkpt>
      <trkpt lat="42.77088" lon="1.54509">
        <ele>1192</ele>
        <time>2024-08-11T13:03:16+02:00</time>
      </trkpt>
      <trkpt lat="42.7705" lon="1.54485">
        <ele>1184</ele>
        <time>2024-08-11T13:03:58+02:00</time>
      </trkpt>
      <trkpt lat="42.77008" lon="1.54478">
        <ele>1176</ele>
        <time>2024-08-11T13:05:03+02:00</time>
      </trkpt>
      <trkpt lat="42.76968" lon="1.54505">
        <ele>1168</ele>
        <time>2024-08-11T13:05:45+02:00</time>
      </trkpt>
      <trkpt lat="42.76973" lon="1.54568">
        <ele>1158</ele>
        <time>2024-08-11T13:06:51+02:00</time>
      </trkpt>
      <trkpt lat="42.76975" lon="1.54624">
        <ele>1148</ele>
        <time>2024-08-11T13:08:52+02:00</time>
      </trkpt>
      <trkpt lat="42.7694" lon="1.54666">
        <ele>1141</ele>
        <time>2024-08-11T13:09:40+02:00</time>
      </trkpt>
      <trkpt lat="42.76897" lon="1.54675">
        <ele>1133</ele>
        <time>2024-08-11T13:10:46+02:00</time>
      </trkpt>
      <trkpt lat="42.76851" lon="1.54677">
        <ele>1127</ele>
        <time>2024-08-11T13:11:22+02:00</time>
      </trkpt>
      <trkpt lat="42.76809" lon="1.5469">
        <ele>1118</ele>
        <time>2024-08-11T13:12:10+02:00</time>
      </trkpt>
      <trkpt lat="42.76767" lon="1.54703">
        <ele>1112</ele>
        <time>2024-08-11T13:13:04+02:00</time>
      </trkpt>
      <trkpt lat="42.76725" lon="1.54725">
        <ele>1106</ele>
        <time>2024-08-11T13:13:52+02:00</time>
      </trkpt>
      <trkpt lat="42.76685" lon="1.54736">
        <ele>1099</ele>
        <time>2024-08-11T13:14:34+02:00</time>
      </trkpt>
      <trkpt lat="42.76642" lon="1.54756">
        <ele>1096</ele>
        <time>2024-08-11T13:15:22+02:00</time>
      </trkpt>
      <trkpt lat="42.76607" lon="1.54785">
        <ele>1088</ele>
        <time>2024-08-11T13:16:04+02:00</time>
      </trkpt>
      <trkpt lat="42.76567" lon="1.54808">
        <ele>1081</ele>
        <time>2024-08-11T13:16:40+02:00</time>
      </trkpt>
      <trkpt lat="42.76552" lon="1.5486">
        <ele>1075</ele>
        <time>2024-08-11T13:17:22+02:00</time>
      </trkpt>
      <trkpt lat="42.76558" lon="1.5492">
        <ele>1066</ele>
        <time>2024-08-11T13:18:22+02:00</time>
      </trkpt>
      <trkpt lat="42.76583" lon="1.54969">
        <ele>1057</ele>
        <time>2024-08-11T13:19:10+02:00</time>
      </trkpt>
      <trkpt lat="42.76564" lon="1.55025">
        <ele>1042</ele>
        <time>2024-08-11T13:19:46+02:00</time>
      </trkpt>
      <trkpt lat="42.76557" lon="1.55085">
        <ele>1027</ele>
        <time>2024-08-11T13:20:34+02:00</time>
      </trkpt>
      <trkpt lat="42.76552" lon="1.55143">
        <ele>1015</ele>
        <time>2024-08-11T13:21:10+02:00</time>
      </trkpt>
      <trkpt lat="42.76537" lon="1.55199">
        <ele>996</ele>
        <time>2024-08-11T13:21:58+02:00</time>
      </trkpt>
      <trkpt lat="42.76574" lon="1.55176">
        <ele>979</ele>
        <time>2024-08-11T13:22:40+02:00</time>
      </trkpt>
      <trkpt lat="42.76585" lon="1.55231">
        <ele>964</ele>
        <time>2024-08-11T13:23:52+02:00</time>
      </trkpt>
      <trkpt lat="42.76566" lon="1.55281">
        <ele>948</ele>
        <time>2024-08-11T13:24:40+02:00</time>
      </trkpt>
      <trkpt lat="42.76606" lon="1.55262">
        <ele>933</ele>
        <time>2024-08-11T13:25:28+02:00</time>
      </trkpt>
      <trkpt lat="42.76638" lon="1.55299">
        <ele>915</ele>
        <time>2024-08-11T13:27:10+02:00</time>
      </trkpt>
      <trkpt lat="42.76643" lon="1.55361">
        <ele>899</ele>
        <time>2024-08-11T13:28:52+02:00</time>
      </trkpt>
      <trkpt lat="42.76687" lon="1.55357">
        <ele>888</ele>
        <time>2024-08-11T13:30:28+02:00</time>
      </trkpt>
      <trkpt lat="42.76713" lon="1.55421">
        <ele>873</ele>
        <time>2024-08-11T13:34:19+02:00</time>
      </trkpt>
      <trkpt lat="42.76719" lon="1.55476">
        <ele>857</ele>
        <time>2024-08-11T13:34:44+02:00</time>
      </trkpt>
      <trkpt lat="42.76734" lon="1.55531">
        <ele>841</ele>
        <time>2024-08-11T13:37:00+02:00</time>
      </trkpt>
      <trkpt lat="42.76736" lon="1.55595">
        <ele>829</ele>
        <time>2024-08-11T13:38:26+02:00</time>
      </trkpt>
      <trkpt lat="42.76724" lon="1.55652">
        <ele>821</ele>
        <time>2024-08-11T13:39:01+02:00</time>
      </trkpt>
      <trkpt lat="42.76712" lon="1.55705">
        <ele>811</ele>
        <time>2024-08-11T13:39:32+02:00</time>
      </trkpt>
      <trkpt lat="42.76701" lon="1.5576">
        <ele>804</ele>
        <time>2024-08-11T13:40:43+02:00</time>
      </trkpt>
      <trkpt lat="42.76697" lon="1.55816">
        <ele>800</ele>
        <time>2024-08-11T13:41:25+02:00</time>
      </trkpt>
      <trkpt lat="42.7668" lon="1.55885">
        <ele>798</ele>
        <time>2024-08-11T13:42:10+02:00</time>
      </trkpt>
      <trkpt lat="42.76638" lon="1.55904">
        <ele>796</ele>
        <time>2024-08-11T13:42:42+02:00</time>
      </trkpt>
      <trkpt lat="42.76611" lon="1.55951">
        <ele>794</ele>
        <time>2024-08-11T13:43:25+02:00</time>
      </trkpt>
      <trkpt lat="42.76584" lon="1.5601">
        <ele>794</ele>
        <time>2024-08-11T13:44:07+02:00</time>
      </trkpt>
      <trkpt lat="42.76565" lon="1.56065">
        <ele>794</ele>
        <time>2024-08-11T13:44:43+02:00</time>
      </trkpt>
      <trkpt lat="42.76547" lon="1.56115">
        <ele>796</ele>
        <time>2024-08-11T13:45:19+02:00</time>
      </trkpt>
      <trkpt lat="42.76511" lon="1.56147">
        <ele>792</ele>
        <time>2024-08-11T13:45:54+02:00</time>
      </trkpt>
      <trkpt lat="42.76477" lon="1.56183">
        <ele>791</ele>
        <time>2024-08-11T13:46:33+02:00</time>
      </trkpt>
      <trkpt lat="42.7644" lon="1.56206">
        <ele>791</ele>
        <time>2024-08-11T13:47:08+02:00</time>
      </trkpt>
      <trkpt lat="42.76479" lon="1.56368">
        <ele>790</ele>
        <time>2024-08-11T13:49:08+02:00</time>
      </trkpt>
      <trkpt lat="42.76542" lon="1.56526">
        <ele>789</ele>
        <time>2024-08-11T13:50:56+02:00</time>
      </trkpt>
      <trkpt lat="42.76503" lon="1.56543">
        <ele>787</ele>
        <time>2024-08-11T13:51:42+02:00</time>
      </trkpt>
      <trkpt lat="42.76407" lon="1.56561">
        <ele>749.4</ele>
      </trkpt>
      <trkpt lat="42.7639" lon="1.56563">
        <ele>749.5</ele>
      </trkpt>
      <trkpt lat="42.76356" lon="1.56573">
        <ele>749.7</ele>
      </trkpt>
      <trkpt lat="42.76348" lon="1.56574">
        <ele>749.5</ele>
      </trkpt>
      <trkpt lat="42.7635" lon="1.56596">
        <ele>751.5</ele>
      </trkpt>
      <trkpt lat="42.76351" lon="1.56605">
        <ele>752.2</ele>
      </trkpt>
      <trkpt lat="42.76349" lon="1.56612">
        <ele>752.7</ele>
      </trkpt>
      <trkpt lat="42.76349" lon="1.56615">
        <ele>753</ele>
      </trkpt>
    </trkseg>
  </trk>
</gpx>